Millenium Air

Millenium Air Since 1998



 METAR AND TAF INFORMATION
METAR FOR LBSF
ADDS - METARS form results

(0904 UTC 19 January 2021)
Data provider http://aviationweather.gov/metar/data/
 
METAR text: LBSF 190900Z 30006KT 9999 BKN024 OVC040 M05/M10 Q1024 NOSIG
Conditions at: LBSF (SOFIA , BG) observed 0900 UTC 19 January 2021
Temperature: -5.0°C (23°F)
Dewpoint: -10.0°C (14°F) [RH = 68%]
Pressure (altimeter): 30.24 inches Hg (1024.0 mb)
Winds: from the WNW (300 degrees) at 7 MPH (6 knots; 3.1 m/s)
Visibility: 6 or more miles (10+ km)
Ceiling: 2400 feet AGL
Clouds: broken clouds at 2400 feet AGL
overcast cloud deck at 4000 feet AGL
Weather: no significant weather observed at this time

METAR text: LBSF 190830Z 30005KT 9999 OVC026 M05/M10 Q1024 NOSIG
Conditions at: LBSF (SOFIA , BG) observed 0830 UTC 19 January 2021
Temperature: -5.0°C (23°F)
Dewpoint: -10.0°C (14°F) [RH = 68%]
Pressure (altimeter): 30.24 inches Hg (1024.0 mb)
Winds: from the WNW (300 degrees) at 6 MPH (5 knots; 2.6 m/s)
Visibility: 6 or more miles (10+ km)
Ceiling: 2600 feet AGL
Clouds: overcast cloud deck at 2600 feet AGL
Weather: no significant weather observed at this time

Forecast for: LBSF (SOFIA , BG)
Text: TAF LBSF 190500Z 1906/2006 28010KT 9999 SCT030
Forecast period: 0600 to 1600 UTC 19 January 2021
Forecast type: FROM: standard forecast or significant change
Winds: from the W (280 degrees) at 12 MPH (10 knots; 5.1 m/s)
Visibility: 6 or more miles (10+ km)
Ceiling: at least 12,000 feet AGL
Clouds: scattered clouds at 3000 feet AGL
Weather: no significant weather forecast for this period
Text: BECMG 1916/1918 VRB04KT
Forecast period: 1600 UTC 19 January 2021 to 0600 UTC 20 January 2021
Forecast type: BECOMING: Conditions expected to become as follows by 1800 UTC 19 January 2021
Winds: variable direction winds at 5 MPH (4 knots; 2.1 m/s)
Visibility: 6 or more miles (10+ km)
Ceiling: at least 12,000 feet AGL
Clouds: scattered clouds at 3000 feet AGL
Weather: no significant weather forecast for this period

 AIRPORT MAP

 RUNWAY INFORMATION
Runway 09 Runway length 9186 ft Runway width 147 ft
Runway elevation 1739 ft Runway displaced threshold 0 ft Runway heading 95
Runway 27 Runway length 9186 ft Runway width 147 ft
Runway elevation 1742 ft Runway displaced threshold 0 ft Runway heading 275

 AIRPORT FREQUENCIES
Type APP Name APP Frequency 123.7 MHZ
Type ATIS Name ATIS Frequency 124.05 MHZ
Type TWR Name TWR Frequency 118.1 MHZ

 AIRPORT NEAR NAVIGATION AIDS
Type NDB Name Bozhourishte Frequency 312 KHZ
Type NDB Name Sofia Frequency 375 KHZ
Type NDB Name Sofia Frequency 335 KHZ
Type NDB Name Sofia Frequency 529 KHZ
Type VOR-DME Name Sofia Frequency 112600 KHZ
Type NDB Name Sofia Frequency 350 KHZ